sensor_id;sensor_type;location;lat;lon;timestamp;temperature;humidity
678;DHT22;321;48.814;9.132;2022-08-25T00:01:24;20.60;99.90
678;DHT22;321;48.814;9.132;2022-08-25T00:03:51;20.60;99.90
678;DHT22;321;48.814;9.132;2022-08-25T00:06:18;20.60;99.90
678;DHT22;321;48.814;9.132;2022-08-25T00:08:44;20.60;99.90
678;DHT22;321;48.814;9.132;2022-08-25T00:11:16;20.50;99.90
678;DHT22;321;48.814;9.132;2022-08-25T00:13:45;20.50;99.90
678;DHT22;321;48.814;9.132;2022-08-25T00:16:12;20.50;99.90
678;DHT22;321;48.814;9.132;2022-08-25T00:18:39;20.60;99.90
678;DHT22;321;48.814;9.132;2022-08-25T00:21:05;20.60;99.90
678;DHT22;321;48.814;9.132;2022-08-25T00:23:31;20.70;99.90
678;DHT22;321;48.814;9.132;2022-08-25T00:25:57;20.70;99.90
678;DHT22;321;48.814;9.132;2022-08-25T00:28:23;20.70;99.90
678;DHT22;321;48.814;9.132;2022-08-25T00:30:49;20.70;99.90
678;DHT22;321;48.814;9.132;2022-08-25T00:33:16;20.70;99.90
678;DHT22;321;48.814;9.132;2022-08-25T00:35:42;20.70;99.90
678;DHT22;321;48.814;9.132;2022-08-25T00:38:09;20.60;99.90
678;DHT22;321;48.814;9.132;2022-08-25T00:40:35;20.60;99.90
678;DHT22;321;48.814;9.132;2022-08-25T00:43:02;20.50;99.90
678;DHT22;321;48.814;9.132;2022-08-25T00:45:31;20.50;99.90
678;DHT22;321;48.814;9.132;2022-08-25T00:47:57;20.40;99.90
678;DHT22;321;48.814;9.132;2022-08-25T00:50:23;20.40;99.90
678;DHT22;321;48.814;9.132;2022-08-25T00:52:51;20.30;99.90
678;DHT22;321;48.814;9.132;2022-08-25T00:55:22;20.20;99.90
678;DHT22;321;48.814;9.132;2022-08-25T00:57:53;20.10;99.90
678;DHT22;321;48.814;9.132;2022-08-25T01:00:36;20.20;99.90
678;DHT22;321;48.814;9.132;2022-08-25T01:03:04;20.20;99.90
678;DHT22;321;48.814;9.132;2022-08-25T01:05:30;20.20;99.90
678;DHT22;321;48.814;9.132;2022-08-25T01:07:56;20.20;99.90
678;DHT22;321;48.814;9.132;2022-08-25T01:10:23;20.10;99.90
678;DHT22;321;48.814;9.132;2022-08-25T01:12:51;20.10;99.90
678;DHT22;321;48.814;9.132;2022-08-25T01:15:19;20.20;99.90
678;DHT22;321;48.814;9.132;2022-08-25T01:17:51;20.30;99.90
678;DHT22;321;48.814;9.132;2022-08-25T01:20:20;20.20;99.90
678;DHT22;321;48.814;9.132;2022-08-25T01:22:47;20.20;99.90
678;DHT22;321;48.814;9.132;2022-08-25T01:28:18;20.30;99.90
678;DHT22;321;48.814;9.132;2022-08-25T01:30:44;20.20;99.90
678;DHT22;321;48.814;9.132;2022-08-25T01:33:10;20.10;99.90
678;DHT22;321;48.814;9.132;2022-08-25T01:35:37;20.10;99.90
678;DHT22;321;48.814;9.132;2022-08-25T01:38:03;20.00;99.90
678;DHT22;321;48.814;9.132;2022-08-25T01:40:30;19.90;99.90
678;DHT22;321;48.814;9.132;2022-08-25T01:43:06;19.80;99.90
678;DHT22;321;48.814;9.132;2022-08-25T01:45:41;19.80;99.90
678;DHT22;321;48.814;9.132;2022-08-25T01:48:08;19.80;99.90
678;DHT22;321;48.814;9.132;2022-08-25T01:50:34;19.80;99.90
678;DHT22;321;48.814;9.132;2022-08-25T01:53:27;19.70;99.90
678;DHT22;321;48.814;9.132;2022-08-25T01:55:52;19.70;99.90
678;DHT22;321;48.814;9.132;2022-08-25T01:58:31;19.70;99.90
678;DHT22;321;48.814;9.132;2022-08-25T02:01:00;19.70;99.90
678;DHT22;321;48.814;9.132;2022-08-25T02:03:26;19.70;99.90
678;DHT22;321;48.814;9.132;2022-08-25T02:05:53;19.60;99.90
678;DHT22;321;48.814;9.132;2022-08-25T02:08:19;19.60;99.90
678;DHT22;321;48.814;9.132;2022-08-25T02:10:46;19.50;99.90
678;DHT22;321;48.814;9.132;2022-08-25T02:13:12;19.50;99.90
678;DHT22;321;48.814;9.132;2022-08-25T02:15:44;19.60;99.90
678;DHT22;321;48.814;9.132;2022-08-25T02:18:11;19.60;99.90
678;DHT22;321;48.814;9.132;2022-08-25T02:20:36;19.60;99.90
678;DHT22;321;48.814;9.132;2022-08-25T02:23:03;19.50;99.90
678;DHT22;321;48.814;9.132;2022-08-25T02:25:29;19.40;99.90
678;DHT22;321;48.814;9.132;2022-08-25T02:27:55;19.30;99.90
678;DHT22;321;48.814;9.132;2022-08-25T02:30:21;19.40;99.90
678;DHT22;321;48.814;9.132;2022-08-25T02:32:47;19.40;99.90
678;DHT22;321;48.814;9.132;2022-08-25T02:35:12;19.30;99.90
678;DHT22;321;48.814;9.132;2022-08-25T02:37:38;19.30;99.90
678;DHT22;321;48.814;9.132;2022-08-25T02:40:04;19.20;99.90
678;DHT22;321;48.814;9.132;2022-08-25T02:42:30;19.10;99.90
678;DHT22;321;48.814;9.132;2022-08-25T02:44:56;19.10;99.90
678;DHT22;321;48.814;9.132;2022-08-25T02:47:22;19.20;99.90
678;DHT22;321;48.814;9.132;2022-08-25T02:49:47;19.20;99.90
678;DHT22;321;48.814;9.132;2022-08-25T02:52:14;19.20;99.90
678;DHT22;321;48.814;9.132;2022-08-25T02:54:40;19.10;99.90
678;DHT22;321;48.814;9.132;2022-08-25T02:57:05;19.10;99.90
678;DHT22;321;48.814;9.132;2022-08-25T02:59:31;19.10;99.90
678;DHT22;321;48.814;9.132;2022-08-25T03:01:57;19.10;99.90
678;DHT22;321;48.814;9.132;2022-08-25T03:04:23;19.10;99.90
678;DHT22;321;48.814;9.132;2022-08-25T03:06:48;19.00;99.90
678;DHT22;321;48.814;9.132;2022-08-25T03:09:14;19.10;99.90
678;DHT22;321;48.814;9.132;2022-08-25T03:11:40;19.10;99.90
678;DHT22;321;48.814;9.132;2022-08-25T03:14:07;19.00;99.90
678;DHT22;321;48.814;9.132;2022-08-25T03:16:33;19.00;99.90
678;DHT22;321;48.814;9.132;2022-08-25T03:18:59;19.00;99.90
678;DHT22;321;48.814;9.132;2022-08-25T03:21:25;19.10;99.90
678;DHT22;321;48.814;9.132;2022-08-25T03:23:51;19.00;99.90
678;DHT22;321;48.814;9.132;2022-08-25T03:26:17;19.00;99.90
678;DHT22;321;48.814;9.132;2022-08-25T03:29:01;19.00;99.90
678;DHT22;321;48.814;9.132;2022-08-25T03:31:32;19.00;99.90
678;DHT22;321;48.814;9.132;2022-08-25T03:33:59;18.90;99.90
678;DHT22;321;48.814;9.132;2022-08-25T03:36:25;18.90;99.90
678;DHT22;321;48.814;9.132;2022-08-25T03:38:51;18.90;99.90
678;DHT22;321;48.814;9.132;2022-08-25T03:41:24;18.80;99.90
678;DHT22;321;48.814;9.132;2022-08-25T03:43:50;18.70;99.90
678;DHT22;321;48.814;9.132;2022-08-25T03:46:22;18.70;99.90
678;DHT22;321;48.814;9.132;2022-08-25T03:48:49;18.70;99.90
678;DHT22;321;48.814;9.132;2022-08-25T03:51:23;18.70;99.90
678;DHT22;321;48.814;9.132;2022-08-25T03:53:50;18.60;99.90
678;DHT22;321;48.814;9.132;2022-08-25T03:56:16;18.60;99.90
678;DHT22;321;48.814;9.132;2022-08-25T03:58:44;18.70;99.90
678;DHT22;321;48.814;9.132;2022-08-25T04:01:10;18.70;99.90
678;DHT22;321;48.814;9.132;2022-08-25T04:03:36;18.60;99.90
678;DHT22;321;48.814;9.132;2022-08-25T04:06:04;18.60;99.90
678;DHT22;321;48.814;9.132;2022-08-25T04:08:30;18.60;99.90
678;DHT22;321;48.814;9.132;2022-08-25T04:10:56;18.50;99.90
678;DHT22;321;48.814;9.132;2022-08-25T04:13:21;18.50;99.90
678;DHT22;321;48.814;9.132;2022-08-25T04:15:47;18.40;99.90
678;DHT22;321;48.814;9.132;2022-08-25T04:18:13;18.50;99.90
678;DHT22;321;48.814;9.132;2022-08-25T04:20:42;18.50;99.90
678;DHT22;321;48.814;9.132;2022-08-25T04:23:08;18.40;99.90
678;DHT22;321;48.814;9.132;2022-08-25T04:25:34;18.40;99.90
678;DHT22;321;48.814;9.132;2022-08-25T04:28:06;18.40;99.90
678;DHT22;321;48.814;9.132;2022-08-25T04:30:32;18.40;99.90
678;DHT22;321;48.814;9.132;2022-08-25T04:32:57;18.40;99.90
678;DHT22;321;48.814;9.132;2022-08-25T04:35:23;18.40;99.90
678;DHT22;321;48.814;9.132;2022-08-25T04:37:49;18.30;99.90
678;DHT22;321;48.814;9.132;2022-08-25T04:40:14;18.30;99.90
678;DHT22;321;48.814;9.132;2022-08-25T04:42:40;18.40;99.90
678;DHT22;321;48.814;9.132;2022-08-25T04:45:06;18.40;99.90
678;DHT22;321;48.814;9.132;2022-08-25T04:47:36;18.40;99.90
678;DHT22;321;48.814;9.132;2022-08-25T04:50:02;18.40;99.90
678;DHT22;321;48.814;9.132;2022-08-25T04:52:28;18.40;99.90
678;DHT22;321;48.814;9.132;2022-08-25T04:54:53;18.40;99.90
678;DHT22;321;48.814;9.132;2022-08-25T04:57:19;18.40;99.90
678;DHT22;321;48.814;9.132;2022-08-25T04:59:45;18.50;99.90
678;DHT22;321;48.814;9.132;2022-08-25T05:02:10;18.60;99.90
678;DHT22;321;48.814;9.132;2022-08-25T05:04:36;18.60;99.90
678;DHT22;321;48.814;9.132;2022-08-25T05:07:03;18.60;99.90
678;DHT22;321;48.814;9.132;2022-08-25T05:09:29;18.60;99.90
678;DHT22;321;48.814;9.132;2022-08-25T05:11:55;18.60;99.90
678;DHT22;321;48.814;9.132;2022-08-25T05:14:21;18.60;99.90
678;DHT22;321;48.814;9.132;2022-08-25T05:16:47;18.70;99.90
678;DHT22;321;48.814;9.132;2022-08-25T05:19:13;18.70;99.90
678;DHT22;321;48.814;9.132;2022-08-25T05:21:39;18.70;99.90
678;DHT22;321;48.814;9.132;2022-08-25T05:24:06;18.80;99.90
678;DHT22;321;48.814;9.132;2022-08-25T05:26:32;18.90;99.90
678;DHT22;321;48.814;9.132;2022-08-25T05:29:00;18.90;99.90
678;DHT22;321;48.814;9.132;2022-08-25T05:31:26;19.10;99.90
678;DHT22;321;48.814;9.132;2022-08-25T05:33:53;19.20;99.90
678;DHT22;321;48.814;9.132;2022-08-25T05:36:20;19.20;99.90
678;DHT22;321;48.814;9.132;2022-08-25T05:38:47;19.40;99.90
678;DHT22;321;48.814;9.132;2022-08-25T05:41:17;19.40;99.90
678;DHT22;321;48.814;9.132;2022-08-25T05:43:44;19.40;99.90
678;DHT22;321;48.814;9.132;2022-08-25T05:46:11;19.60;99.90
678;DHT22;321;48.814;9.132;2022-08-25T05:48:37;19.50;99.90
678;DHT22;321;48.814;9.132;2022-08-25T05:51:05;19.60;99.90
678;DHT22;321;48.814;9.132;2022-08-25T05:53:31;19.60;99.90
678;DHT22;321;48.814;9.132;2022-08-25T05:55:59;19.60;99.90
678;DHT22;321;48.814;9.132;2022-08-25T05:58:25;19.60;99.90
678;DHT22;321;48.814;9.132;2022-08-25T06:00:53;19.70;99.90
678;DHT22;321;48.814;9.132;2022-08-25T06:03:19;19.80;99.90
678;DHT22;321;48.814;9.132;2022-08-25T06:05:44;19.80;99.90
678;DHT22;321;48.814;9.132;2022-08-25T06:08:10;19.90;99.90
678;DHT22;321;48.814;9.132;2022-08-25T06:10:36;19.90;99.90
678;DHT22;321;48.814;9.132;2022-08-25T06:13:02;20.00;99.90
678;DHT22;321;48.814;9.132;2022-08-25T06:15:28;20.10;99.90
678;DHT22;321;48.814;9.132;2022-08-25T06:17:54;19.90;99.90
678;DHT22;321;48.814;9.132;2022-08-25T06:20:25;19.90;99.90
678;DHT22;321;48.814;9.132;2022-08-25T06:22:53;19.90;99.90
678;DHT22;321;48.814;9.132;2022-08-25T06:25:23;19.90;99.90
678;DHT22;321;48.814;9.132;2022-08-25T06:27:49;20.10;99.90
678;DHT22;321;48.814;9.132;2022-08-25T06:30:18;20.30;99.90
678;DHT22;321;48.814;9.132;2022-08-25T06:32:44;20.40;99.90
678;DHT22;321;48.814;9.132;2022-08-25T06:35:13;20.50;99.90
678;DHT22;321;48.814;9.132;2022-08-25T06:37:40;20.60;99.90
678;DHT22;321;48.814;9.132;2022-08-25T06:40:07;20.70;99.90
678;DHT22;321;48.814;9.132;2022-08-25T06:42:33;20.70;99.90
678;DHT22;321;48.814;9.132;2022-08-25T06:44:59;21.00;99.90
678;DHT22;321;48.814;9.132;2022-08-25T06:47:26;21.30;99.90
678;DHT22;321;48.814;9.132;2022-08-25T06:49:52;21.40;99.90
678;DHT22;321;48.814;9.132;2022-08-25T06:52:18;21.70;99.90
678;DHT22;321;48.814;9.132;2022-08-25T06:54:43;21.70;99.90
678;DHT22;321;48.814;9.132;2022-08-25T06:57:09;22.00;99.90
678;DHT22;321;48.814;9.132;2022-08-25T06:59:35;22.20;99.90
678;DHT22;321;48.814;9.132;2022-08-25T07:02:01;22.50;99.90
678;DHT22;321;48.814;9.132;2022-08-25T07:04:27;22.70;99.90
678;DHT22;321;48.814;9.132;2022-08-25T07:06:52;22.80;99.90
678;DHT22;321;48.814;9.132;2022-08-25T07:09:18;23.10;99.90
678;DHT22;321;48.814;9.132;2022-08-25T07:11:45;23.40;99.90
678;DHT22;321;48.814;9.132;2022-08-25T07:14:13;23.60;99.90
678;DHT22;321;48.814;9.132;2022-08-25T07:16:40;24.70;99.90
678;DHT22;321;48.814;9.132;2022-08-25T07:19:06;26.90;97.20
678;DHT22;321;48.814;9.132;2022-08-25T07:21:34;29.20;92.70
678;DHT22;321;48.814;9.132;2022-08-25T07:24:01;30.30;89.80
678;DHT22;321;48.814;9.132;2022-08-25T07:26:30;31.20;84.00
678;DHT22;321;48.814;9.132;2022-08-25T07:28:56;31.90;79.80
678;DHT22;321;48.814;9.132;2022-08-25T07:31:23;31.90;77.00
678;DHT22;321;48.814;9.132;2022-08-25T07:33:49;31.10;77.00
678;DHT22;321;48.814;9.132;2022-08-25T07:36:33;31.60;77.40
678;DHT22;321;48.814;9.132;2022-08-25T07:38:59;32.70;73.90
678;DHT22;321;48.814;9.132;2022-08-25T07:41:31;33.80;69.70
678;DHT22;321;48.814;9.132;2022-08-25T07:43:57;34.40;66.20
678;DHT22;321;48.814;9.132;2022-08-25T07:46:22;34.10;63.80
678;DHT22;321;48.814;9.132;2022-08-25T07:48:48;34.10;63.40
678;DHT22;321;48.814;9.132;2022-08-25T07:51:14;33.50;64.80
678;DHT22;321;48.814;9.132;2022-08-25T07:53:40;33.50;63.00
678;DHT22;321;48.814;9.132;2022-08-25T07:56:11;33.10;64.90
678;DHT22;321;48.814;9.132;2022-08-25T07:58:38;32.90;65.90
678;DHT22;321;48.814;9.132;2022-08-25T08:01:05;32.90;63.30
678;DHT22;321;48.814;9.132;2022-08-25T08:03:31;33.70;63.60
678;DHT22;321;48.814;9.132;2022-08-25T08:06:05;34.70;60.70
678;DHT22;321;48.814;9.132;2022-08-25T08:08:31;35.60;58.40
678;DHT22;321;48.814;9.132;2022-08-25T08:10:57;35.70;57.80
678;DHT22;321;48.814;9.132;2022-08-25T08:13:24;35.60;57.60
678;DHT22;321;48.814;9.132;2022-08-25T08:15:51;36.40;56.20
678;DHT22;321;48.814;9.132;2022-08-25T08:18:16;36.00;56.60
678;DHT22;321;48.814;9.132;2022-08-25T08:20:44;35.90;55.60
678;DHT22;321;48.814;9.132;2022-08-25T08:23:11;36.40;55.60
678;DHT22;321;48.814;9.132;2022-08-25T08:25:36;37.00;54.50
678;DHT22;321;48.814;9.132;2022-08-25T08:28:02;37.70;53.60
678;DHT22;321;48.814;9.132;2022-08-25T08:30:28;36.30;53.00
678;DHT22;321;48.814;9.132;2022-08-25T08:32:54;36.10;55.10
678;DHT22;321;48.814;9.132;2022-08-25T08:35:19;35.70;55.80
678;DHT22;321;48.814;9.132;2022-08-25T08:37:45;37.00;54.00
678;DHT22;321;48.814;9.132;2022-08-25T08:40:14;37.30;53.30
678;DHT22;321;48.814;9.132;2022-08-25T08:42:55;36.10;54.20
678;DHT22;321;48.814;9.132;2022-08-25T08:45:35;34.90;56.40
678;DHT22;321;48.814;9.132;2022-08-25T08:53:44;35.70;54.10
678;DHT22;321;48.814;9.132;2022-08-25T08:56:22;34.90;55.90
678;DHT22;321;48.814;9.132;2022-08-25T08:59:02;34.80;56.60
678;DHT22;321;48.814;9.132;2022-08-25T09:01:51;36.10;54.30
678;DHT22;321;48.814;9.132;2022-08-25T09:07:10;35.80;53.30
678;DHT22;321;48.814;9.132;2022-08-25T09:09:39;35.10;55.30
678;DHT22;321;48.814;9.132;2022-08-25T09:12:14;36.20;53.60
678;DHT22;321;48.814;9.132;2022-08-25T09:26:40;35.70;53.20
678;DHT22;321;48.814;9.132;2022-08-25T09:29:15;37.30;51.20
678;DHT22;321;48.814;9.132;2022-08-25T09:31:43;38.20;49.80
678;DHT22;321;48.814;9.132;2022-08-25T09:34:18;37.20;50.00
678;DHT22;321;48.814;9.132;2022-08-25T09:36:44;35.80;51.20
678;DHT22;321;48.814;9.132;2022-08-25T09:39:13;35.20;52.20
678;DHT22;321;48.814;9.132;2022-08-25T09:41:48;35.80;53.00
678;DHT22;321;48.814;9.132;2022-08-25T09:44:18;35.40;52.30
678;DHT22;321;48.814;9.132;2022-08-25T09:47:03;35.30;53.90
678;DHT22;321;48.814;9.132;2022-08-25T09:49:38;36.40;51.60
678;DHT22;321;48.814;9.132;2022-08-25T09:52:25;37.20;51.10
678;DHT22;321;48.814;9.132;2022-08-25T09:54:52;38.30;48.50
678;DHT22;321;48.814;9.132;2022-08-25T09:59:53;37.50;48.80
678;DHT22;321;48.814;9.132;2022-08-25T10:02:23;37.00;49.90
678;DHT22;321;48.814;9.132;2022-08-25T10:04:50;36.60;49.80
678;DHT22;321;48.814;9.132;2022-08-25T10:07:25;37.00;49.80
678;DHT22;321;48.814;9.132;2022-08-25T10:09:54;37.30;48.40
678;DHT22;321;48.814;9.132;2022-08-25T10:12:28;37.00;48.90
678;DHT22;321;48.814;9.132;2022-08-25T10:14:54;35.80;51.10
678;DHT22;321;48.814;9.132;2022-08-25T10:17:29;35.20;53.00
678;DHT22;321;48.814;9.132;2022-08-25T10:20:17;35.50;53.30
678;DHT22;321;48.814;9.132;2022-08-25T10:22:44;36.00;51.60
678;DHT22;321;48.814;9.132;2022-08-25T10:25:13;35.50;52.30
678;DHT22;321;48.814;9.132;2022-08-25T10:33:55;36.40;51.10
678;DHT22;321;48.814;9.132;2022-08-25T10:36:40;36.20;51.50
678;DHT22;321;48.814;9.132;2022-08-25T10:39:15;36.10;51.70
678;DHT22;321;48.814;9.132;2022-08-25T10:42:01;37.10;50.10
678;DHT22;321;48.814;9.132;2022-08-25T10:44:41;37.90;49.00
678;DHT22;321;48.814;9.132;2022-08-25T10:52:45;37.50;48.50
678;DHT22;321;48.814;9.132;2022-08-25T10:55:29;37.50;47.90
678;DHT22;321;48.814;9.132;2022-08-25T11:03:49;36.80;48.40
678;DHT22;321;48.814;9.132;2022-08-25T11:06:21;36.50;48.00
678;DHT22;321;48.814;9.132;2022-08-25T11:08:50;36.50;49.00
678;DHT22;321;48.814;9.132;2022-08-25T11:11:51;36.90;48.20
678;DHT22;321;48.814;9.132;2022-08-25T11:14:39;36.30;48.30
678;DHT22;321;48.814;9.132;2022-08-25T11:17:21;37.00;48.10
678;DHT22;321;48.814;9.132;2022-08-25T11:19:51;37.30;47.70
678;DHT22;321;48.814;9.132;2022-08-25T11:22:33;36.40;47.80
678;DHT22;321;48.814;9.132;2022-08-25T11:25:19;36.20;49.00
678;DHT22;321;48.814;9.132;2022-08-25T11:30:42;34.50;51.10
678;DHT22;321;48.814;9.132;2022-08-25T11:33:15;34.20;51.90
678;DHT22;321;48.814;9.132;2022-08-25T11:35:47;33.40;52.40
678;DHT22;321;48.814;9.132;2022-08-25T11:38:22;33.40;53.60
678;DHT22;321;48.814;9.132;2022-08-25T11:43:53;34.00;52.70
678;DHT22;321;48.814;9.132;2022-08-25T11:51:44;35.30;50.20
678;DHT22;321;48.814;9.132;2022-08-25T11:54:41;34.90;50.60
678;DHT22;321;48.814;9.132;2022-08-25T11:57:16;34.10;51.40
678;DHT22;321;48.814;9.132;2022-08-25T12:02:44;32.60;53.40
678;DHT22;321;48.814;9.132;2022-08-25T12:11:05;31.00;57.00
678;DHT22;321;48.814;9.132;2022-08-25T12:13:42;30.70;58.00
678;DHT22;321;48.814;9.132;2022-08-25T12:16:31;30.70;58.10
678;DHT22;321;48.814;9.132;2022-08-25T12:19:27;31.10;57.90
678;DHT22;321;48.814;9.132;2022-08-25T12:27:22;31.30;56.20
678;DHT22;321;48.814;9.132;2022-08-25T12:30:02;31.20;56.40
678;DHT22;321;48.814;9.132;2022-08-25T12:35:20;30.70;57.50
678;DHT22;321;48.814;9.132;2022-08-25T12:40:38;30.50;57.50
678;DHT22;321;48.814;9.132;2022-08-25T12:43:35;30.40;57.80
678;DHT22;321;48.814;9.132;2022-08-25T12:49:04;30.70;57.40
678;DHT22;321;48.814;9.132;2022-08-25T12:56:56;30.10;58.70
678;DHT22;321;48.814;9.132;2022-08-25T12:59:40;30.00;58.60
678;DHT22;321;48.814;9.132;2022-08-25T13:16:15;30.20;57.30
678;DHT22;321;48.814;9.132;2022-08-25T13:18:41;30.20;57.20
678;DHT22;321;48.814;9.132;2022-08-25T13:23:42;30.50;56.70
678;DHT22;321;48.814;9.132;2022-08-25T13:26:15;30.30;56.60
678;DHT22;321;48.814;9.132;2022-08-25T13:28:42;30.20;57.20
678;DHT22;321;48.814;9.132;2022-08-25T13:31:15;30.30;57.30
678;DHT22;321;48.814;9.132;2022-08-25T13:33:58;30.20;57.20
678;DHT22;321;48.814;9.132;2022-08-25T13:36:26;30.10;57.80
678;DHT22;321;48.814;9.132;2022-08-25T13:39:16;30.20;57.40
678;DHT22;321;48.814;9.132;2022-08-25T13:41:52;30.30;57.70
678;DHT22;321;48.814;9.132;2022-08-25T13:44:20;30.50;57.10
678;DHT22;321;48.814;9.132;2022-08-25T13:46:46;30.80;57.00
678;DHT22;321;48.814;9.132;2022-08-25T13:49:23;30.70;56.10
678;DHT22;321;48.814;9.132;2022-08-25T13:51:52;30.50;56.40
678;DHT22;321;48.814;9.132;2022-08-25T13:54:44;30.70;56.40
678;DHT22;321;48.814;9.132;2022-08-25T13:57:13;30.90;56.10
678;DHT22;321;48.814;9.132;2022-08-25T13:59:42;30.80;55.90
678;DHT22;321;48.814;9.132;2022-08-25T14:02:10;30.70;56.40
678;DHT22;321;48.814;9.132;2022-08-25T14:07:25;30.30;56.70
678;DHT22;321;48.814;9.132;2022-08-25T14:09:58;30.30;55.60
678;DHT22;321;48.814;9.132;2022-08-25T14:12:26;30.50;55.60
678;DHT22;321;48.814;9.132;2022-08-25T14:17:44;30.50;56.00
678;DHT22;321;48.814;9.132;2022-08-25T14:20:22;30.50;54.60
678;DHT22;321;48.814;9.132;2022-08-25T14:22:55;30.40;55.00
678;DHT22;321;48.814;9.132;2022-08-25T14:25:21;30.50;55.70
678;DHT22;321;48.814;9.132;2022-08-25T14:27:59;30.70;55.80
678;DHT22;321;48.814;9.132;2022-08-25T14:30:26;30.80;55.30
678;DHT22;321;48.814;9.132;2022-08-25T14:32:52;30.90;55.60
678;DHT22;321;48.814;9.132;2022-08-25T14:35:17;31.10;55.20
678;DHT22;321;48.814;9.132;2022-08-25T14:37:44;31.20;55.10
678;DHT22;321;48.814;9.132;2022-08-25T14:40:10;31.30;55.30
678;DHT22;321;48.814;9.132;2022-08-25T14:42:47;31.10;54.80
678;DHT22;321;48.814;9.132;2022-08-25T14:45:17;31.20;54.90
678;DHT22;321;48.814;9.132;2022-08-25T14:47:43;31.10;55.00
678;DHT22;321;48.814;9.132;2022-08-25T14:50:11;31.00;55.10
678;DHT22;321;48.814;9.132;2022-08-25T14:52:40;30.80;54.80
678;DHT22;321;48.814;9.132;2022-08-25T14:55:07;30.70;55.30
678;DHT22;321;48.814;9.132;2022-08-25T14:57:33;30.50;55.70
678;DHT22;321;48.814;9.132;2022-08-25T15:00:00;30.50;56.10
678;DHT22;321;48.814;9.132;2022-08-25T15:02:26;30.40;56.20
678;DHT22;321;48.814;9.132;2022-08-25T15:04:55;30.20;56.50
678;DHT22;321;48.814;9.132;2022-08-25T15:07:22;30.10;56.30
678;DHT22;321;48.814;9.132;2022-08-25T15:10:07;30.00;56.70
678;DHT22;321;48.814;9.132;2022-08-25T15:12:34;29.90;56.80
678;DHT22;321;48.814;9.132;2022-08-25T15:14:59;29.90;56.50
678;DHT22;321;48.814;9.132;2022-08-25T15:17:27;30.00;56.70
678;DHT22;321;48.814;9.132;2022-08-25T15:19:52;30.10;56.60
678;DHT22;321;48.814;9.132;2022-08-25T15:22:18;30.20;56.70
678;DHT22;321;48.814;9.132;2022-08-25T15:24:44;30.40;56.50
678;DHT22;321;48.814;9.132;2022-08-25T15:27:11;30.20;56.40
678;DHT22;321;48.814;9.132;2022-08-25T15:29:38;30.20;56.70
678;DHT22;321;48.814;9.132;2022-08-25T15:32:07;30.30;56.40
678;DHT22;321;48.814;9.132;2022-08-25T15:34:34;30.20;56.40
678;DHT22;321;48.814;9.132;2022-08-25T15:37:13;30.20;56.50
678;DHT22;321;48.814;9.132;2022-08-25T15:39:40;30.20;56.80
678;DHT22;321;48.814;9.132;2022-08-25T15:42:08;30.10;56.70
678;DHT22;321;48.814;9.132;2022-08-25T15:44:39;29.90;57.10
678;DHT22;321;48.814;9.132;2022-08-25T15:47:05;29.80;57.70
678;DHT22;321;48.814;9.132;2022-08-25T15:49:31;29.90;57.60
678;DHT22;321;48.814;9.132;2022-08-25T15:51:57;29.90;57.50
678;DHT22;321;48.814;9.132;2022-08-25T15:54:24;29.80;57.30
678;DHT22;321;48.814;9.132;2022-08-25T15:56:50;29.70;58.00
678;DHT22;321;48.814;9.132;2022-08-25T15:59:16;29.60;58.80
678;DHT22;321;48.814;9.132;2022-08-25T16:01:42;29.60;58.50
678;DHT22;321;48.814;9.132;2022-08-25T16:04:08;29.50;58.50
678;DHT22;321;48.814;9.132;2022-08-25T16:06:34;29.40;58.60
678;DHT22;321;48.814;9.132;2022-08-25T16:09:00;29.40;58.60
678;DHT22;321;48.814;9.132;2022-08-25T16:11:29;29.50;58.00
678;DHT22;321;48.814;9.132;2022-08-25T16:13:56;29.40;58.40
678;DHT22;321;48.814;9.132;2022-08-25T16:16:24;29.20;59.20
678;DHT22;321;48.814;9.132;2022-08-25T16:18:51;29.30;59.10
678;DHT22;321;48.814;9.132;2022-08-25T16:21:20;29.20;58.80
678;DHT22;321;48.814;9.132;2022-08-25T16:23:49;29.10;59.20
678;DHT22;321;48.814;9.132;2022-08-25T16:26:14;29.10;59.40
678;DHT22;321;48.814;9.132;2022-08-25T16:28:41;29.00;59.50
678;DHT22;321;48.814;9.132;2022-08-25T16:31:12;29.00;59.40
678;DHT22;321;48.814;9.132;2022-08-25T16:33:38;29.00;59.20
678;DHT22;321;48.814;9.132;2022-08-25T16:38:39;29.10;59.30
678;DHT22;321;48.814;9.132;2022-08-25T16:41:06;29.10;59.50
678;DHT22;321;48.814;9.132;2022-08-25T16:43:32;29.10;60.50
678;DHT22;321;48.814;9.132;2022-08-25T16:46:03;29.00;59.90
678;DHT22;321;48.814;9.132;2022-08-25T16:48:29;28.90;59.80
678;DHT22;321;48.814;9.132;2022-08-25T16:50:56;28.90;59.70
678;DHT22;321;48.814;9.132;2022-08-25T16:53:22;28.90;60.70
678;DHT22;321;48.814;9.132;2022-08-25T16:56:06;28.90;61.40
678;DHT22;321;48.814;9.132;2022-08-25T16:58:32;28.90;60.30
678;DHT22;321;48.814;9.132;2022-08-25T17:01:09;28.80;59.90
678;DHT22;321;48.814;9.132;2022-08-25T17:03:39;28.80;60.50
678;DHT22;321;48.814;9.132;2022-08-25T17:06:06;28.80;60.50
678;DHT22;321;48.814;9.132;2022-08-25T17:08:34;28.90;61.50
678;DHT22;321;48.814;9.132;2022-08-25T17:11:27;28.90;61.40
678;DHT22;321;48.814;9.132;2022-08-25T17:13:58;28.80;60.80
678;DHT22;321;48.814;9.132;2022-08-25T17:16:27;28.80;61.20
678;DHT22;321;48.814;9.132;2022-08-25T17:18:55;28.80;61.70
678;DHT22;321;48.814;9.132;2022-08-25T17:21:23;29.00;64.30
678;DHT22;321;48.814;9.132;2022-08-25T17:23:52;29.00;64.10
678;DHT22;321;48.814;9.132;2022-08-25T17:26:18;28.80;62.60
678;DHT22;321;48.814;9.132;2022-08-25T17:28:44;28.80;61.50
678;DHT22;321;48.814;9.132;2022-08-25T17:31:12;28.80;61.70
678;DHT22;321;48.814;9.132;2022-08-25T17:33:38;28.70;62.10
678;DHT22;321;48.814;9.132;2022-08-25T17:36:04;28.70;62.60
678;DHT22;321;48.814;9.132;2022-08-25T17:38:30;28.70;64.00
678;DHT22;321;48.814;9.132;2022-08-25T17:40:59;28.50;62.90
678;DHT22;321;48.814;9.132;2022-08-25T17:43:27;28.50;64.00
678;DHT22;321;48.814;9.132;2022-08-25T17:45:54;28.40;64.40
678;DHT22;321;48.814;9.132;2022-08-25T17:48:24;28.40;65.10
678;DHT22;321;48.814;9.132;2022-08-25T17:50:50;28.20;65.70
678;DHT22;321;48.814;9.132;2022-08-25T17:53:16;28.10;66.10
678;DHT22;321;48.814;9.132;2022-08-25T17:55:43;28.10;66.40
678;DHT22;321;48.814;9.132;2022-08-25T17:58:11;28.00;66.50
678;DHT22;321;48.814;9.132;2022-08-25T18:00:37;27.90;66.60
678;DHT22;321;48.814;9.132;2022-08-25T18:03:04;27.80;67.30
678;DHT22;321;48.814;9.132;2022-08-25T18:05:32;27.70;67.60
678;DHT22;321;48.814;9.132;2022-08-25T18:07:59;27.60;67.90
678;DHT22;321;48.814;9.132;2022-08-25T18:10:25;27.50;67.40
678;DHT22;321;48.814;9.132;2022-08-25T18:12:50;27.40;68.70
678;DHT22;321;48.814;9.132;2022-08-25T18:15:16;27.30;68.80
678;DHT22;321;48.814;9.132;2022-08-25T18:17:43;27.30;69.20
678;DHT22;321;48.814;9.132;2022-08-25T18:20:10;27.10;69.80
678;DHT22;321;48.814;9.132;2022-08-25T18:22:37;27.00;70.70
678;DHT22;321;48.814;9.132;2022-08-25T18:25:09;26.90;70.90
678;DHT22;321;48.814;9.132;2022-08-25T18:27:35;26.80;71.70
678;DHT22;321;48.814;9.132;2022-08-25T18:30:00;26.80;71.80
678;DHT22;321;48.814;9.132;2022-08-25T18:32:27;26.70;71.90
678;DHT22;321;48.814;9.132;2022-08-25T18:34:53;26.60;72.30